Kinrikimaru — JL6545 — position and weather

sailwx.info

Track history (hours):
 
Tides and Currents Weather Stations Pressure Air Temp Water Temp Dewpoint Dewpoint Depression Visibility Wind Speed Wind Dir Waves Ship Positions

Kinrikimaru

Last reported at 2014-Aug-30 17:32 UTC. Time now 2014-Aug-30 18:29 UTC.
Position N 34°35' E 135°25'.

Length 76 m; draft 3.5 m.

Type: Cargo ship. MMSI: 431500615.

Date/timePositionNaut miles runAvg speedWind from/ knotsBaromVisibWave heightAir tempDewpointWater temp
2014-Aug-30 17:32N 34°35' E 135°25'0 0.0
2014-Aug-30 16:30N 34°35' E 135°25'0 0.0
2014-Aug-30 15:22N 34°35' E 135°25'0 0.0
2014-Aug-30 14:33N 34°35' E 135°25'0 0.0
2014-Aug-30 13:33N 34°35' E 135°25'0 0.0
2014-Aug-30 12:30N 34°35' E 135°25'0 0.0
2014-Aug-30 11:33N 34°35' E 135°25'9 8.7
2014-Aug-30 10:33N 34°31' E 135°16'1211.9
2014-Aug-30 09:33N 34°23' E 135°06'1210.7
2014-Aug-30 08:24N 34°12' E 134°58'  
2014-Aug-26 08:33N 34°37' E 134°59'1010.1
2014-Aug-26 07:33N 34°36' E 135°11'1111.4
2014-Aug-26 06:33N 34°36' E 135°25'1 0.8
2014-Aug-26 05:15N 34°35' E 135°26'0 0.0
2014-Aug-26 04:33N 34°35' E 135°26'0 0.0
2014-Aug-26 03:33N 34°35' E 135°26'0 0.0
2014-Aug-26 02:33N 34°35' E 135°26'0 0.0
2014-Aug-26 01:33N 34°35' E 135°26'0 0.0
2014-Aug-26 00:27N 34°35' E 135°26'0 0.0
2014-Aug-25 23:33N 34°35' E 135°26'1 1.2
2014-Aug-25 22:32N 34°35' E 135°27'0 0.0
2014-Aug-25 14:20N 34°35' E 135°27'0 0.0
2014-Aug-25 13:32N 34°35' E 135°27'0 0.0
2014-Aug-25 12:14N 34°35' E 135°27'0 0.0
2014-Aug-25 11:26N 34°35' E 135°27'0 0.0
2014-Aug-25 10:32N 34°35' E 135°27'0 0.0
2014-Aug-25 09:20N 34°35' E 135°27'0 0.0
2014-Aug-25 08:32N 34°35' E 135°27'0 0.0
2014-Aug-25 07:32N 34°35' E 135°27'0 0.0
2014-Aug-25 06:20N 34°35' E 135°27'0 0.0
2014-Aug-25 05:32N 34°35' E 135°27'0 0.0
2014-Aug-25 04:32N 34°35' E 135°27'6 5.8
2014-Aug-25 03:33N 34°36' E 135°20'1312.3
2014-Aug-25 02:28N 34°35' E 135°04'12210.8
2014-Aug-24 15:12N 34°03' E 132°42'2411.8
2014-Aug-24 13:10N 33°50' E 132°17'  
2014-Aug-21 15:20N 33°58' E 132°43'  
Track history (hours):
 
Tides and Currents Weather Stations Pressure Air Temp Water Temp Dewpoint Dewpoint Depression Visibility Wind Speed Wind Dir Waves Ship Positions

Kinrikimaru

Last reported at 2014-Aug-30 17:32 UTC. Time now 2014-Aug-30 18:29 UTC.
Position N 34°35' E 135°25'.

Length 76 m; draft 3.5 m.

Type: Cargo ship. MMSI: 431500615.

Date/timePositionNaut miles runAvg speedWind from/ knotsBaromVisibWave heightAir tempDewpointWater temp
2014-Aug-30 17:32N 34°35' E 135°25'0 0.0
2014-Aug-30 16:30N 34°35' E 135°25'0 0.0
2014-Aug-30 15:22N 34°35' E 135°25'0 0.0
2014-Aug-30 14:33N 34°35' E 135°25'0 0.0
2014-Aug-30 13:33N 34°35' E 135°25'0 0.0
2014-Aug-30 12:30N 34°35' E 135°25'0 0.0
2014-Aug-30 11:33N 34°35' E 135°25'9 8.7
2014-Aug-30 10:33N 34°31' E 135°16'1211.9
2014-Aug-30 09:33N 34°23' E 135°06'1210.7
2014-Aug-30 08:24N 34°12' E 134°58'  
2014-Aug-26 08:33N 34°37' E 134°59'1010.1
2014-Aug-26 07:33N 34°36' E 135°11'1111.4
2014-Aug-26 06:33N 34°36' E 135°25'1 0.8
2014-Aug-26 05:15N 34°35' E 135°26'0 0.0
2014-Aug-26 04:33N 34°35' E 135°26'0 0.0
2014-Aug-26 03:33N 34°35' E 135°26'0 0.0
2014-Aug-26 02:33N 34°35' E 135°26'0 0.0
2014-Aug-26 01:33N 34°35' E 135°26'0 0.0
2014-Aug-26 00:27N 34°35' E 135°26'0 0.0
2014-Aug-25 23:33N 34°35' E 135°26'1 1.2
2014-Aug-25 22:32N 34°35' E 135°27'0 0.0
2014-Aug-25 14:20N 34°35' E 135°27'0 0.0
2014-Aug-25 13:32N 34°35' E 135°27'0 0.0
2014-Aug-25 12:14N 34°35' E 135°27'0 0.0
2014-Aug-25 11:26N 34°35' E 135°27'0 0.0
2014-Aug-25 10:32N 34°35' E 135°27'0 0.0
2014-Aug-25 09:20N 34°35' E 135°27'0 0.0
2014-Aug-25 08:32N 34°35' E 135°27'0 0.0
2014-Aug-25 07:32N 34°35' E 135°27'0 0.0
2014-Aug-25 06:20N 34°35' E 135°27'0 0.0
2014-Aug-25 05:32N 34°35' E 135°27'0 0.0
2014-Aug-25 04:32N 34°35' E 135°27'6 5.8
2014-Aug-25 03:33N 34°36' E 135°20'1312.3
2014-Aug-25 02:28N 34°35' E 135°04'12210.8
2014-Aug-24 15:12N 34°03' E 132°42'2411.8
2014-Aug-24 13:10N 33°50' E 132°17'  
2014-Aug-21 15:20N 33°58' E 132°43'  

Dump ship's entire track history